sensor_id;sensor_type;location;lat;lon;timestamp;P1;durP1;ratioP1;P2;durP2;ratioP2
13764;SDS011;6953;48.810;9.204;2023-02-12T00:01:43;0.60;;;0.60;;
13764;SDS011;6953;48.810;9.204;2023-02-12T00:04:09;0.43;;;0.43;;
13764;SDS011;6953;48.810;9.204;2023-02-12T00:06:34;0.60;;;0.60;;
13764;SDS011;6953;48.810;9.204;2023-02-12T00:08:59;0.53;;;0.53;;
13764;SDS011;6953;48.810;9.204;2023-02-12T00:11:26;0.70;;;0.70;;
13764;SDS011;6953;48.810;9.204;2023-02-12T00:13:53;0.60;;;0.60;;
13764;SDS011;6953;48.810;9.204;2023-02-12T00:16:20;0.57;;;0.57;;
13764;SDS011;6953;48.810;9.204;2023-02-12T00:18:49;0.53;;;0.53;;
13764;SDS011;6953;48.810;9.204;2023-02-12T00:21:16;0.60;;;0.60;;
13764;SDS011;6953;48.810;9.204;2023-02-12T00:23:42;0.60;;;0.60;;
13764;SDS011;6953;48.810;9.204;2023-02-12T00:26:08;0.60;;;0.60;;
13764;SDS011;6953;48.810;9.204;2023-02-12T00:28:35;0.60;;;0.60;;
13764;SDS011;6953;48.810;9.204;2023-02-12T00:31:04;0.60;;;0.60;;
13764;SDS011;6953;48.810;9.204;2023-02-12T00:33:34;0.50;;;0.50;;
13764;SDS011;6953;48.810;9.204;2023-02-12T00:36:00;0.60;;;0.60;;
13764;SDS011;6953;48.810;9.204;2023-02-12T00:38:25;0.43;;;0.43;;
13764;SDS011;6953;48.810;9.204;2023-02-12T00:40:51;0.53;;;0.53;;
13764;SDS011;6953;48.810;9.204;2023-02-12T00:43:16;0.67;;;0.67;;
13764;SDS011;6953;48.810;9.204;2023-02-12T00:45:43;0.60;;;0.60;;
13764;SDS011;6953;48.810;9.204;2023-02-12T00:48:09;0.60;;;0.60;;
13764;SDS011;6953;48.810;9.204;2023-02-12T00:50:34;0.60;;;0.60;;
13764;SDS011;6953;48.810;9.204;2023-02-12T00:53:00;0.70;;;0.70;;
13764;SDS011;6953;48.810;9.204;2023-02-12T00:55:25;0.60;;;0.60;;
13764;SDS011;6953;48.810;9.204;2023-02-12T00:57:51;0.70;;;0.70;;
13764;SDS011;6953;48.810;9.204;2023-02-12T01:00:16;0.60;;;0.60;;
13764;SDS011;6953;48.810;9.204;2023-02-12T01:02:41;0.60;;;0.60;;
13764;SDS011;6953;48.810;9.204;2023-02-12T01:05:07;0.60;;;0.60;;
13764;SDS011;6953;48.810;9.204;2023-02-12T01:07:33;0.63;;;0.63;;
13764;SDS011;6953;48.810;9.204;2023-02-12T01:09:58;0.60;;;0.60;;
13764;SDS011;6953;48.810;9.204;2023-02-12T01:12:23;0.50;;;0.50;;
13764;SDS011;6953;48.810;9.204;2023-02-12T01:14:49;0.53;;;0.53;;
13764;SDS011;6953;48.810;9.204;2023-02-12T01:17:14;0.70;;;0.70;;
13764;SDS011;6953;48.810;9.204;2023-02-12T01:19:39;0.60;;;0.60;;
13764;SDS011;6953;48.810;9.204;2023-02-12T01:22:05;0.60;;;0.60;;
13764;SDS011;6953;48.810;9.204;2023-02-12T01:24:30;0.60;;;0.60;;
13764;SDS011;6953;48.810;9.204;2023-02-12T01:26:55;0.60;;;0.60;;
13764;SDS011;6953;48.810;9.204;2023-02-12T01:29:21;0.60;;;0.60;;
13764;SDS011;6953;48.810;9.204;2023-02-12T01:31:46;0.50;;;0.50;;
13764;SDS011;6953;48.810;9.204;2023-02-12T01:34:12;0.50;;;0.50;;
13764;SDS011;6953;48.810;9.204;2023-02-12T01:36:37;0.60;;;0.60;;
13764;SDS011;6953;48.810;9.204;2023-02-12T01:39:04;0.50;;;0.50;;
13764;SDS011;6953;48.810;9.204;2023-02-12T01:41:31;0.50;;;0.50;;
13764;SDS011;6953;48.810;9.204;2023-02-12T01:46:30;0.60;;;0.60;;
13764;SDS011;6953;48.810;9.204;2023-02-12T01:48:55;0.67;;;0.67;;
13764;SDS011;6953;48.810;9.204;2023-02-12T01:51:21;0.50;;;0.50;;
13764;SDS011;6953;48.810;9.204;2023-02-12T01:53:49;0.60;;;0.60;;
13764;SDS011;6953;48.810;9.204;2023-02-12T01:56:18;0.60;;;0.60;;
13764;SDS011;6953;48.810;9.204;2023-02-12T01:58:44;0.60;;;0.60;;
13764;SDS011;6953;48.810;9.204;2023-02-12T02:01:16;0.60;;;0.60;;
13764;SDS011;6953;48.810;9.204;2023-02-12T02:03:45;0.50;;;0.50;;
13764;SDS011;6953;48.810;9.204;2023-02-12T02:06:16;0.60;;;0.60;;
13764;SDS011;6953;48.810;9.204;2023-02-12T02:08:45;0.60;;;0.60;;
13764;SDS011;6953;48.810;9.204;2023-02-12T02:11:11;0.60;;;0.60;;
13764;SDS011;6953;48.810;9.204;2023-02-12T02:13:55;0.60;;;0.60;;
13764;SDS011;6953;48.810;9.204;2023-02-12T02:16:45;0.50;;;0.50;;
13764;SDS011;6953;48.810;9.204;2023-02-12T02:19:29;0.40;;;0.40;;
13764;SDS011;6953;48.810;9.204;2023-02-12T02:22:17;0.50;;;0.50;;
13764;SDS011;6953;48.810;9.204;2023-02-12T02:27:51;0.50;;;0.50;;
13764;SDS011;6953;48.810;9.204;2023-02-12T02:36:22;0.50;;;0.50;;
13764;SDS011;6953;48.810;9.204;2023-02-12T02:41:43;0.50;;;0.50;;
13764;SDS011;6953;48.810;9.204;2023-02-12T02:44:22;0.40;;;0.40;;
13764;SDS011;6953;48.810;9.204;2023-02-12T02:47:00;0.40;;;0.40;;
13764;SDS011;6953;48.810;9.204;2023-02-12T02:49:36;0.60;;;0.60;;
13764;SDS011;6953;48.810;9.204;2023-02-12T02:52:13;0.50;;;0.50;;
13764;SDS011;6953;48.810;9.204;2023-02-12T02:54:47;0.50;;;0.50;;
13764;SDS011;6953;48.810;9.204;2023-02-12T02:57:19;0.50;;;0.50;;
13764;SDS011;6953;48.810;9.204;2023-02-12T02:59:51;0.50;;;0.50;;
13764;SDS011;6953;48.810;9.204;2023-02-12T03:02:20;0.50;;;0.50;;
13764;SDS011;6953;48.810;9.204;2023-02-12T03:04:54;0.60;;;0.60;;
13764;SDS011;6953;48.810;9.204;2023-02-12T03:07:25;0.50;;;0.50;;
13764;SDS011;6953;48.810;9.204;2023-02-12T03:09:58;0.50;;;0.50;;
13764;SDS011;6953;48.810;9.204;2023-02-12T03:15:05;0.60;;;0.60;;
13764;SDS011;6953;48.810;9.204;2023-02-12T03:17:35;0.60;;;0.60;;
13764;SDS011;6953;48.810;9.204;2023-02-12T03:20:07;0.60;;;0.60;;
13764;SDS011;6953;48.810;9.204;2023-02-12T03:22:38;0.60;;;0.60;;
13764;SDS011;6953;48.810;9.204;2023-02-12T03:25:11;0.70;;;0.70;;
13764;SDS011;6953;48.810;9.204;2023-02-12T03:28:02;0.60;;;0.60;;
13764;SDS011;6953;48.810;9.204;2023-02-12T03:31:07;0.60;;;0.60;;
13764;SDS011;6953;48.810;9.204;2023-02-12T03:36:28;0.60;;;0.60;;
13764;SDS011;6953;48.810;9.204;2023-02-12T03:39:07;0.60;;;0.60;;
13764;SDS011;6953;48.810;9.204;2023-02-12T03:41:40;0.70;;;0.70;;
13764;SDS011;6953;48.810;9.204;2023-02-12T03:49:38;0.60;;;0.60;;
13764;SDS011;6953;48.810;9.204;2023-02-12T03:52:13;0.70;;;0.70;;
13764;SDS011;6953;48.810;9.204;2023-02-12T03:54:38;0.60;;;0.60;;
13764;SDS011;6953;48.810;9.204;2023-02-12T03:57:11;0.63;;;0.63;;
13764;SDS011;6953;48.810;9.204;2023-02-12T03:59:41;0.60;;;0.60;;
13764;SDS011;6953;48.810;9.204;2023-02-12T04:02:08;0.50;;;0.50;;
13764;SDS011;6953;48.810;9.204;2023-02-12T04:04:33;0.53;;;0.53;;
13764;SDS011;6953;48.810;9.204;2023-02-12T04:06:59;0.67;;;0.67;;
13764;SDS011;6953;48.810;9.204;2023-02-12T04:09:25;0.60;;;0.60;;
13764;SDS011;6953;48.810;9.204;2023-02-12T04:11:58;0.60;;;0.60;;
13764;SDS011;6953;48.810;9.204;2023-02-12T04:14:28;0.50;;;0.50;;
13764;SDS011;6953;48.810;9.204;2023-02-12T04:19:47;0.60;;;0.60;;
13764;SDS011;6953;48.810;9.204;2023-02-12T04:22:43;0.60;;;0.60;;
13764;SDS011;6953;48.810;9.204;2023-02-12T04:25:39;0.53;;;0.53;;
13764;SDS011;6953;48.810;9.204;2023-02-12T04:31:20;0.70;;;0.70;;
13764;SDS011;6953;48.810;9.204;2023-02-12T04:36:37;0.60;;;0.60;;
13764;SDS011;6953;48.810;9.204;2023-02-12T04:39:09;0.60;;;0.60;;
13764;SDS011;6953;48.810;9.204;2023-02-12T04:41:40;0.50;;;0.50;;
13764;SDS011;6953;48.810;9.204;2023-02-12T04:44:16;0.60;;;0.60;;
13764;SDS011;6953;48.810;9.204;2023-02-12T04:46:46;0.50;;;0.50;;
13764;SDS011;6953;48.810;9.204;2023-02-12T04:49:13;0.40;;;0.40;;
13764;SDS011;6953;48.810;9.204;2023-02-12T04:51:40;0.50;;;0.50;;
13764;SDS011;6953;48.810;9.204;2023-02-12T04:54:06;0.47;;;0.47;;
13764;SDS011;6953;48.810;9.204;2023-02-12T04:56:31;0.70;;;0.70;;
13764;SDS011;6953;48.810;9.204;2023-02-12T04:58:56;0.63;;;0.63;;
13764;SDS011;6953;48.810;9.204;2023-02-12T05:01:22;0.60;;;0.60;;
13764;SDS011;6953;48.810;9.204;2023-02-12T05:03:48;0.60;;;0.60;;
13764;SDS011;6953;48.810;9.204;2023-02-12T05:06:15;0.50;;;0.50;;
13764;SDS011;6953;48.810;9.204;2023-02-12T05:08:40;0.50;;;0.50;;
13764;SDS011;6953;48.810;9.204;2023-02-12T05:11:06;0.50;;;0.50;;
13764;SDS011;6953;48.810;9.204;2023-02-12T05:13:32;0.43;;;0.43;;
13764;SDS011;6953;48.810;9.204;2023-02-12T05:15:58;0.50;;;0.50;;
13764;SDS011;6953;48.810;9.204;2023-02-12T05:18:24;0.50;;;0.50;;
13764;SDS011;6953;48.810;9.204;2023-02-12T05:20:59;0.50;;;0.50;;
13764;SDS011;6953;48.810;9.204;2023-02-12T05:23:28;0.60;;;0.60;;
13764;SDS011;6953;48.810;9.204;2023-02-12T05:25:57;0.50;;;0.50;;
13764;SDS011;6953;48.810;9.204;2023-02-12T05:28:22;0.50;;;0.50;;
13764;SDS011;6953;48.810;9.204;2023-02-12T05:30:48;0.50;;;0.50;;
13764;SDS011;6953;48.810;9.204;2023-02-12T05:33:13;0.60;;;0.60;;
13764;SDS011;6953;48.810;9.204;2023-02-12T05:35:39;0.60;;;0.60;;
13764;SDS011;6953;48.810;9.204;2023-02-12T05:38:04;0.50;;;0.50;;
13764;SDS011;6953;48.810;9.204;2023-02-12T05:40:30;0.60;;;0.60;;
13764;SDS011;6953;48.810;9.204;2023-02-12T05:42:55;0.50;;;0.50;;
13764;SDS011;6953;48.810;9.204;2023-02-12T05:45:20;0.60;;;0.60;;
13764;SDS011;6953;48.810;9.204;2023-02-12T05:47:51;0.60;;;0.60;;
13764;SDS011;6953;48.810;9.204;2023-02-12T05:50:17;0.60;;;0.60;;
13764;SDS011;6953;48.810;9.204;2023-02-12T05:52:43;0.70;;;0.70;;
13764;SDS011;6953;48.810;9.204;2023-02-12T05:55:09;0.60;;;0.60;;
13764;SDS011;6953;48.810;9.204;2023-02-12T05:57:34;0.70;;;0.70;;
13764;SDS011;6953;48.810;9.204;2023-02-12T05:59:59;0.70;;;0.70;;
13764;SDS011;6953;48.810;9.204;2023-02-12T06:02:25;0.70;;;0.70;;
13764;SDS011;6953;48.810;9.204;2023-02-12T06:04:50;0.70;;;0.70;;
13764;SDS011;6953;48.810;9.204;2023-02-12T06:07:15;0.70;;;0.70;;
13764;SDS011;6953;48.810;9.204;2023-02-12T06:09:41;0.60;;;0.60;;
13764;SDS011;6953;48.810;9.204;2023-02-12T06:12:06;0.67;;;0.67;;
13764;SDS011;6953;48.810;9.204;2023-02-12T06:14:31;0.70;;;0.70;;
13764;SDS011;6953;48.810;9.204;2023-02-12T06:16:57;0.60;;;0.60;;
13764;SDS011;6953;48.810;9.204;2023-02-12T06:19:22;0.50;;;0.50;;
13764;SDS011;6953;48.810;9.204;2023-02-12T06:21:48;0.60;;;0.60;;
13764;SDS011;6953;48.810;9.204;2023-02-12T06:24:14;0.50;;;0.50;;
13764;SDS011;6953;48.810;9.204;2023-02-12T06:26:41;0.50;;;0.50;;
13764;SDS011;6953;48.810;9.204;2023-02-12T06:29:07;0.50;;;0.50;;
13764;SDS011;6953;48.810;9.204;2023-02-12T06:31:33;0.70;;;0.70;;
13764;SDS011;6953;48.810;9.204;2023-02-12T06:34:01;0.57;;;0.57;;
13764;SDS011;6953;48.810;9.204;2023-02-12T06:36:28;0.60;;;0.60;;
13764;SDS011;6953;48.810;9.204;2023-02-12T06:38:59;0.60;;;0.60;;
13764;SDS011;6953;48.810;9.204;2023-02-12T06:41:25;0.50;;;0.50;;
13764;SDS011;6953;48.810;9.204;2023-02-12T06:43:51;0.60;;;0.60;;
13764;SDS011;6953;48.810;9.204;2023-02-12T06:46:16;0.70;;;0.70;;
13764;SDS011;6953;48.810;9.204;2023-02-12T06:48:42;0.60;;;0.60;;
13764;SDS011;6953;48.810;9.204;2023-02-12T06:51:08;0.70;;;0.70;;
13764;SDS011;6953;48.810;9.204;2023-02-12T06:53:42;0.60;;;0.60;;
13764;SDS011;6953;48.810;9.204;2023-02-12T06:56:09;0.60;;;0.60;;
13764;SDS011;6953;48.810;9.204;2023-02-12T06:58:37;0.60;;;0.60;;
13764;SDS011;6953;48.810;9.204;2023-02-12T07:01:10;0.60;;;0.60;;
13764;SDS011;6953;48.810;9.204;2023-02-12T07:03:38;0.60;;;0.60;;
13764;SDS011;6953;48.810;9.204;2023-02-12T07:06:04;0.63;;;0.63;;
13764;SDS011;6953;48.810;9.204;2023-02-12T07:08:30;0.70;;;0.70;;
13764;SDS011;6953;48.810;9.204;2023-02-12T07:10:55;0.70;;;0.70;;
13764;SDS011;6953;48.810;9.204;2023-02-12T07:13:21;0.60;;;0.60;;
13764;SDS011;6953;48.810;9.204;2023-02-12T07:15:46;0.70;;;0.70;;
13764;SDS011;6953;48.810;9.204;2023-02-12T07:18:11;0.70;;;0.70;;
13764;SDS011;6953;48.810;9.204;2023-02-12T07:20:36;0.70;;;0.70;;
13764;SDS011;6953;48.810;9.204;2023-02-12T07:23:02;0.63;;;0.63;;
13764;SDS011;6953;48.810;9.204;2023-02-12T07:25:27;0.63;;;0.63;;
13764;SDS011;6953;48.810;9.204;2023-02-12T07:27:52;0.63;;;0.63;;
13764;SDS011;6953;48.810;9.204;2023-02-12T07:30:18;0.60;;;0.60;;
13764;SDS011;6953;48.810;9.204;2023-02-12T07:32:46;0.60;;;0.60;;
13764;SDS011;6953;48.810;9.204;2023-02-12T07:35:11;0.70;;;0.70;;
13764;SDS011;6953;48.810;9.204;2023-02-12T07:37:36;0.70;;;0.70;;
13764;SDS011;6953;48.810;9.204;2023-02-12T07:40:02;0.60;;;0.60;;
13764;SDS011;6953;48.810;9.204;2023-02-12T07:42:27;0.70;;;0.70;;
13764;SDS011;6953;48.810;9.204;2023-02-12T07:44:54;0.70;;;0.70;;
13764;SDS011;6953;48.810;9.204;2023-02-12T07:47:19;0.60;;;0.60;;
13764;SDS011;6953;48.810;9.204;2023-02-12T07:49:45;0.70;;;0.70;;
13764;SDS011;6953;48.810;9.204;2023-02-12T07:52:10;0.60;;;0.60;;
13764;SDS011;6953;48.810;9.204;2023-02-12T07:54:36;0.68;;;0.68;;
13764;SDS011;6953;48.810;9.204;2023-02-12T07:57:01;0.52;;;0.52;;
13764;SDS011;6953;48.810;9.204;2023-02-12T07:59:27;0.70;;;0.70;;
13764;SDS011;6953;48.810;9.204;2023-02-12T08:01:53;0.52;;;0.52;;
13764;SDS011;6953;48.810;9.204;2023-02-12T08:04:19;0.60;;;0.60;;
13764;SDS011;6953;48.810;9.204;2023-02-12T08:06:47;0.60;;;0.60;;
13764;SDS011;6953;48.810;9.204;2023-02-12T08:09:17;0.60;;;0.60;;
13764;SDS011;6953;48.810;9.204;2023-02-12T08:11:44;0.60;;;0.60;;
13764;SDS011;6953;48.810;9.204;2023-02-12T08:14:11;0.50;;;0.50;;
13764;SDS011;6953;48.810;9.204;2023-02-12T08:16:39;0.50;;;0.50;;
13764;SDS011;6953;48.810;9.204;2023-02-12T08:19:06;0.70;;;0.70;;
13764;SDS011;6953;48.810;9.204;2023-02-12T08:21:32;0.52;;;0.52;;
13764;SDS011;6953;48.810;9.204;2023-02-12T08:23:57;0.60;;;0.60;;
13764;SDS011;6953;48.810;9.204;2023-02-12T08:26:27;0.52;;;0.52;;
13764;SDS011;6953;48.810;9.204;2023-02-12T08:28:56;0.60;;;0.60;;
13764;SDS011;6953;48.810;9.204;2023-02-12T08:31:30;0.57;;;0.57;;
13764;SDS011;6953;48.810;9.204;2023-02-12T08:33:57;0.45;;;0.45;;
13764;SDS011;6953;48.810;9.204;2023-02-12T08:36:30;0.52;;;0.52;;
13764;SDS011;6953;48.810;9.204;2023-02-12T08:39:03;0.45;;;0.45;;
13764;SDS011;6953;48.810;9.204;2023-02-12T08:41:30;0.60;;;0.60;;
13764;SDS011;6953;48.810;9.204;2023-02-12T08:43:56;0.50;;;0.50;;
13764;SDS011;6953;48.810;9.204;2023-02-12T08:46:24;0.40;;;0.40;;
13764;SDS011;6953;48.810;9.204;2023-02-12T08:48:59;0.60;;;0.60;;
13764;SDS011;6953;48.810;9.204;2023-02-12T08:51:27;0.50;;;0.50;;
13764;SDS011;6953;48.810;9.204;2023-02-12T08:54:01;0.47;;;0.47;;
13764;SDS011;6953;48.810;9.204;2023-02-12T08:56:29;0.40;;;0.40;;
13764;SDS011;6953;48.810;9.204;2023-02-12T08:58:57;0.57;;;0.57;;
13764;SDS011;6953;48.810;9.204;2023-02-12T09:01:23;0.50;;;0.50;;
13764;SDS011;6953;48.810;9.204;2023-02-12T09:03:50;0.50;;;0.50;;
13764;SDS011;6953;48.810;9.204;2023-02-12T09:06:17;0.43;;;0.43;;
13764;SDS011;6953;48.810;9.204;2023-02-12T09:08:44;0.50;;;0.50;;
13764;SDS011;6953;48.810;9.204;2023-02-12T09:11:10;0.60;;;0.60;;
13764;SDS011;6953;48.810;9.204;2023-02-12T09:13:38;0.60;;;0.60;;
13764;SDS011;6953;48.810;9.204;2023-02-12T09:16:07;0.50;;;0.50;;
13764;SDS011;6953;48.810;9.204;2023-02-12T09:18:33;0.50;;;0.50;;
13764;SDS011;6953;48.810;9.204;2023-02-12T09:21:00;0.43;;;0.43;;
13764;SDS011;6953;48.810;9.204;2023-02-12T09:23:30;0.57;;;0.57;;
13764;SDS011;6953;48.810;9.204;2023-02-12T09:25:55;0.50;;;0.50;;
13764;SDS011;6953;48.810;9.204;2023-02-12T09:28:21;0.45;;;0.45;;
13764;SDS011;6953;48.810;9.204;2023-02-12T09:30:46;0.55;;;0.55;;
13764;SDS011;6953;48.810;9.204;2023-02-12T09:33:12;0.50;;;0.50;;
13764;SDS011;6953;48.810;9.204;2023-02-12T09:35:38;0.57;;;0.57;;
13764;SDS011;6953;48.810;9.204;2023-02-12T09:38:04;0.50;;;0.50;;
13764;SDS011;6953;48.810;9.204;2023-02-12T09:40:45;0.40;;;0.40;;
13764;SDS011;6953;48.810;9.204;2023-02-12T09:46:16;0.40;;;0.40;;
13764;SDS011;6953;48.810;9.204;2023-02-12T09:49:40;0.50;;;0.50;;
13764;SDS011;6953;48.810;9.204;2023-02-12T09:51:51;0.50;;;0.50;;
13764;SDS011;6953;48.810;9.204;2023-02-12T09:54:19;0.60;;;0.60;;
13764;SDS011;6953;48.810;9.204;2023-02-12T09:56:55;0.50;;;0.50;;
13764;SDS011;6953;48.810;9.204;2023-02-12T09:59:31;0.47;;;0.47;;
13764;SDS011;6953;48.810;9.204;2023-02-12T10:02:01;0.50;;;0.50;;
13764;SDS011;6953;48.810;9.204;2023-02-12T10:04:27;0.50;;;0.50;;
13764;SDS011;6953;48.810;9.204;2023-02-12T10:07:10;0.50;;;0.50;;
13764;SDS011;6953;48.810;9.204;2023-02-12T10:17:35;0.40;;;0.40;;
13764;SDS011;6953;48.810;9.204;2023-02-12T10:23:20;0.40;;;0.40;;
13764;SDS011;6953;48.810;9.204;2023-02-12T10:26:20;0.43;;;0.43;;
13764;SDS011;6953;48.810;9.204;2023-02-12T10:28:50;0.50;;;0.50;;
13764;SDS011;6953;48.810;9.204;2023-02-12T10:31:33;0.40;;;0.40;;
13764;SDS011;6953;48.810;9.204;2023-02-12T10:34:24;0.40;;;0.40;;
13764;SDS011;6953;48.810;9.204;2023-02-12T10:36:50;0.30;;;0.30;;
13764;SDS011;6953;48.810;9.204;2023-02-12T10:44:27;0.50;;;0.50;;
13764;SDS011;6953;48.810;9.204;2023-02-12T10:46:53;0.43;;;0.43;;
13764;SDS011;6953;48.810;9.204;2023-02-12T10:49:19;0.50;;;0.50;;
13764;SDS011;6953;48.810;9.204;2023-02-12T10:52:01;0.50;;;0.50;;
13764;SDS011;6953;48.810;9.204;2023-02-12T10:54:44;0.60;;;0.60;;
13764;SDS011;6953;48.810;9.204;2023-02-12T10:57:14;0.50;;;0.50;;
13764;SDS011;6953;48.810;9.204;2023-02-12T10:59:44;0.40;;;0.40;;
13764;SDS011;6953;48.810;9.204;2023-02-12T11:02:16;0.50;;;0.50;;
13764;SDS011;6953;48.810;9.204;2023-02-12T11:04:45;0.50;;;0.50;;
13764;SDS011;6953;48.810;9.204;2023-02-12T11:07:11;0.43;;;0.43;;
13764;SDS011;6953;48.810;9.204;2023-02-12T11:09:40;0.40;;;0.40;;
13764;SDS011;6953;48.810;9.204;2023-02-12T11:17:39;0.50;;;0.50;;
13764;SDS011;6953;48.810;9.204;2023-02-12T11:22:34;0.40;;;0.40;;
13764;SDS011;6953;48.810;9.204;2023-02-12T11:25:00;0.30;;;0.30;;
13764;SDS011;6953;48.810;9.204;2023-02-12T11:27:32;0.43;;;0.43;;
13764;SDS011;6953;48.810;9.204;2023-02-12T11:30:11;0.40;;;0.40;;
13764;SDS011;6953;48.810;9.204;2023-02-12T11:32:39;0.50;;;0.50;;
13764;SDS011;6953;48.810;9.204;2023-02-12T11:37:49;0.40;;;0.40;;
13764;SDS011;6953;48.810;9.204;2023-02-12T11:40:18;0.50;;;0.50;;
13764;SDS011;6953;48.810;9.204;2023-02-12T11:42:52;0.30;;;0.30;;
13764;SDS011;6953;48.810;9.204;2023-02-12T11:45:20;0.30;;;0.30;;
13764;SDS011;6953;48.810;9.204;2023-02-12T11:47:50;0.35;;;0.35;;
13764;SDS011;6953;48.810;9.204;2023-02-12T11:50:26;0.40;;;0.40;;
13764;SDS011;6953;48.810;9.204;2023-02-12T11:52:56;0.50;;;0.50;;
13764;SDS011;6953;48.810;9.204;2023-02-12T11:55:31;0.32;;;0.32;;
13764;SDS011;6953;48.810;9.204;2023-02-12T11:58:04;0.40;;;0.40;;
13764;SDS011;6953;48.810;9.204;2023-02-12T12:00:47;0.40;;;0.40;;
13764;SDS011;6953;48.810;9.204;2023-02-12T12:06:20;0.50;;;0.50;;
13764;SDS011;6953;48.810;9.204;2023-02-12T12:08:52;0.40;;;0.40;;
13764;SDS011;6953;48.810;9.204;2023-02-12T12:17:01;0.40;;;0.40;;
13764;SDS011;6953;48.810;9.204;2023-02-12T12:19:53;0.30;;;0.30;;
13764;SDS011;6953;48.810;9.204;2023-02-12T12:33:02;0.30;;;0.30;;
13764;SDS011;6953;48.810;9.204;2023-02-12T12:35:38;0.20;;;0.20;;
13764;SDS011;6953;48.810;9.204;2023-02-12T12:38:37;0.20;;;0.20;;
13764;SDS011;6953;48.810;9.204;2023-02-12T12:46:33;0.10;;;0.10;;
13764;SDS011;6953;48.810;9.204;2023-02-12T12:49:12;0.03;;;0.03;;
13764;SDS011;6953;48.810;9.204;2023-02-12T12:54:54;0.10;;;0.10;;
13764;SDS011;6953;48.810;9.204;2023-02-12T13:08:46;0.10;;;0.10;;
13764;SDS011;6953;48.810;9.204;2023-02-12T13:11:27;0.15;;;0.15;;
13764;SDS011;6953;48.810;9.204;2023-02-12T13:17:13;0.10;;;0.10;;
13764;SDS011;6953;48.810;9.204;2023-02-12T13:28:39;0.15;;;0.15;;
13764;SDS011;6953;48.810;9.204;2023-02-12T13:31:09;0.15;;;0.15;;
13764;SDS011;6953;48.810;9.204;2023-02-12T13:33:42;0.20;;;0.20;;
13764;SDS011;6953;48.810;9.204;2023-02-12T13:36:12;0.20;;;0.20;;
13764;SDS011;6953;48.810;9.204;2023-02-12T13:38:53;0.20;;;0.20;;
13764;SDS011;6953;48.810;9.204;2023-02-12T13:41:23;0.20;;;0.20;;
13764;SDS011;6953;48.810;9.204;2023-02-12T13:46:39;0.20;;;0.20;;
13764;SDS011;6953;48.810;9.204;2023-02-12T13:52:01;0.30;;;0.30;;
13764;SDS011;6953;48.810;9.204;2023-02-12T13:57:10;0.30;;;0.30;;
13764;SDS011;6953;48.810;9.204;2023-02-12T13:59:42;0.40;;;0.40;;
13764;SDS011;6953;48.810;9.204;2023-02-12T14:04:57;0.50;;;0.50;;
13764;SDS011;6953;48.810;9.204;2023-02-12T14:10:21;0.40;;;0.40;;
13764;SDS011;6953;48.810;9.204;2023-02-12T14:12:56;0.50;;;0.50;;
13764;SDS011;6953;48.810;9.204;2023-02-12T14:15:34;0.43;;;0.43;;
13764;SDS011;6953;48.810;9.204;2023-02-12T14:18:04;0.40;;;0.40;;
13764;SDS011;6953;48.810;9.204;2023-02-12T14:23:45;0.50;;;0.50;;
13764;SDS011;6953;48.810;9.204;2023-02-12T14:26:14;0.40;;;0.40;;
13764;SDS011;6953;48.810;9.204;2023-02-12T14:28:46;0.40;;;0.40;;
13764;SDS011;6953;48.810;9.204;2023-02-12T14:33:42;0.50;;;0.50;;
13764;SDS011;6953;48.810;9.204;2023-02-12T14:36:19;0.50;;;0.50;;
13764;SDS011;6953;48.810;9.204;2023-02-12T14:41:43;0.50;;;0.50;;
13764;SDS011;6953;48.810;9.204;2023-02-12T14:49:23;0.40;;;0.40;;
13764;SDS011;6953;48.810;9.204;2023-02-12T15:00:03;0.47;;;0.47;;
13764;SDS011;6953;48.810;9.204;2023-02-12T15:03:19;0.50;;;0.50;;
13764;SDS011;6953;48.810;9.204;2023-02-12T15:05:46;0.50;;;0.50;;
13764;SDS011;6953;48.810;9.204;2023-02-12T15:14:01;0.40;;;0.40;;
13764;SDS011;6953;48.810;9.204;2023-02-12T15:18:57;0.50;;;0.50;;
13764;SDS011;6953;48.810;9.204;2023-02-12T15:21:27;0.50;;;0.50;;
13764;SDS011;6953;48.810;9.204;2023-02-12T15:24:02;0.40;;;0.40;;
13764;SDS011;6953;48.810;9.204;2023-02-12T15:26:36;0.50;;;0.50;;
13764;SDS011;6953;48.810;9.204;2023-02-12T15:29:05;0.50;;;0.50;;
13764;SDS011;6953;48.810;9.204;2023-02-12T15:31:32;0.40;;;0.40;;
13764;SDS011;6953;48.810;9.204;2023-02-12T15:33:59;0.50;;;0.50;;
13764;SDS011;6953;48.810;9.204;2023-02-12T15:36:27;0.50;;;0.50;;
13764;SDS011;6953;48.810;9.204;2023-02-12T15:38:56;0.50;;;0.50;;
13764;SDS011;6953;48.810;9.204;2023-02-12T15:43:58;0.60;;;0.60;;
13764;SDS011;6953;48.810;9.204;2023-02-12T15:46:24;0.60;;;0.60;;
13764;SDS011;6953;48.810;9.204;2023-02-12T15:48:50;0.40;;;0.40;;
13764;SDS011;6953;48.810;9.204;2023-02-12T15:54:03;0.50;;;0.50;;
13764;SDS011;6953;48.810;9.204;2023-02-12T15:56:30;0.50;;;0.50;;
13764;SDS011;6953;48.810;9.204;2023-02-12T15:58:58;0.50;;;0.50;;
13764;SDS011;6953;48.810;9.204;2023-02-12T16:01:27;0.60;;;0.60;;
13764;SDS011;6953;48.810;9.204;2023-02-12T16:03:59;0.70;;;0.70;;
13764;SDS011;6953;48.810;9.204;2023-02-12T16:06:27;0.50;;;0.50;;
13764;SDS011;6953;48.810;9.204;2023-02-12T16:09:07;0.50;;;0.50;;
13764;SDS011;6953;48.810;9.204;2023-02-12T16:11:39;0.50;;;0.50;;
13764;SDS011;6953;48.810;9.204;2023-02-12T16:14:19;0.60;;;0.60;;
13764;SDS011;6953;48.810;9.204;2023-02-12T16:16:49;0.50;;;0.50;;
13764;SDS011;6953;48.810;9.204;2023-02-12T16:19:24;0.50;;;0.50;;
13764;SDS011;6953;48.810;9.204;2023-02-12T16:24:59;0.70;;;0.70;;
13764;SDS011;6953;48.810;9.204;2023-02-12T16:27:30;0.50;;;0.50;;
13764;SDS011;6953;48.810;9.204;2023-02-12T16:29:59;0.50;;;0.50;;
13764;SDS011;6953;48.810;9.204;2023-02-12T16:32:29;0.60;;;0.60;;
13764;SDS011;6953;48.810;9.204;2023-02-12T16:35:02;0.50;;;0.50;;
13764;SDS011;6953;48.810;9.204;2023-02-12T16:37:59;0.47;;;0.47;;
13764;SDS011;6953;48.810;9.204;2023-02-12T16:40:29;0.50;;;0.50;;
13764;SDS011;6953;48.810;9.204;2023-02-12T16:43:04;0.63;;;0.63;;
13764;SDS011;6953;48.810;9.204;2023-02-12T16:45:47;0.50;;;0.50;;
13764;SDS011;6953;48.810;9.204;2023-02-12T16:48:15;0.50;;;0.50;;
13764;SDS011;6953;48.810;9.204;2023-02-12T16:50:44;0.60;;;0.60;;
13764;SDS011;6953;48.810;9.204;2023-02-12T16:53:33;0.60;;;0.60;;
13764;SDS011;6953;48.810;9.204;2023-02-12T16:56:00;0.50;;;0.50;;
13764;SDS011;6953;48.810;9.204;2023-02-12T16:58:27;0.50;;;0.50;;
13764;SDS011;6953;48.810;9.204;2023-02-12T17:00:54;0.50;;;0.50;;
13764;SDS011;6953;48.810;9.204;2023-02-12T17:03:21;0.40;;;0.40;;
13764;SDS011;6953;48.810;9.204;2023-02-12T17:05:48;0.60;;;0.60;;
13764;SDS011;6953;48.810;9.204;2023-02-12T17:08:15;0.60;;;0.60;;
13764;SDS011;6953;48.810;9.204;2023-02-12T17:10:42;0.60;;;0.60;;
13764;SDS011;6953;48.810;9.204;2023-02-12T17:13:08;0.63;;;0.63;;
13764;SDS011;6953;48.810;9.204;2023-02-12T17:16:17;0.57;;;0.57;;
13764;SDS011;6953;48.810;9.204;2023-02-12T17:18:27;0.50;;;0.50;;
13764;SDS011;6953;48.810;9.204;2023-02-12T17:20:53;0.50;;;0.50;;
13764;SDS011;6953;48.810;9.204;2023-02-12T17:23:21;0.70;;;0.70;;
13764;SDS011;6953;48.810;9.204;2023-02-12T17:25:47;0.60;;;0.60;;
13764;SDS011;6953;48.810;9.204;2023-02-12T17:28:12;0.60;;;0.60;;
13764;SDS011;6953;48.810;9.204;2023-02-12T17:30:37;0.60;;;0.60;;
13764;SDS011;6953;48.810;9.204;2023-02-12T17:33:03;0.50;;;0.50;;
13764;SDS011;6953;48.810;9.204;2023-02-12T17:35:29;0.50;;;0.50;;
13764;SDS011;6953;48.810;9.204;2023-02-12T17:37:54;0.43;;;0.43;;
13764;SDS011;6953;48.810;9.204;2023-02-12T17:40:19;0.50;;;0.50;;
13764;SDS011;6953;48.810;9.204;2023-02-12T17:42:45;0.53;;;0.53;;
13764;SDS011;6953;48.810;9.204;2023-02-12T17:45:10;0.67;;;0.67;;
13764;SDS011;6953;48.810;9.204;2023-02-12T17:47:36;0.60;;;0.60;;
13764;SDS011;6953;48.810;9.204;2023-02-12T17:50:05;0.60;;;0.60;;
13764;SDS011;6953;48.810;9.204;2023-02-12T17:52:31;0.50;;;0.50;;
13764;SDS011;6953;48.810;9.204;2023-02-12T17:54:57;0.60;;;0.60;;
13764;SDS011;6953;48.810;9.204;2023-02-12T17:57:22;0.53;;;0.53;;
13764;SDS011;6953;48.810;9.204;2023-02-12T17:59:47;0.60;;;0.60;;
13764;SDS011;6953;48.810;9.204;2023-02-12T18:02:13;0.70;;;0.70;;
13764;SDS011;6953;48.810;9.204;2023-02-12T18:04:38;0.67;;;0.67;;